createdAt,value
2023-05-01T00:00:32.468Z,11.10
2023-05-01T00:02:34.643Z,9.00
2023-05-01T00:04:37.009Z,11.68
2023-05-01T00:06:39.284Z,11.23
2023-05-01T00:08:42.681Z,10.32
2023-05-01T00:10:44.578Z,9.68
2023-05-01T00:12:49.414Z,11.85
2023-05-01T00:14:51.490Z,11.40
2023-05-01T00:16:53.523Z,11.27
2023-05-01T00:18:55.605Z,12.00
2023-05-01T00:20:58.184Z,11.95
2023-05-01T00:23:01.884Z,14.02
2023-05-01T00:25:06.333Z,10.30
2023-05-01T00:27:08.433Z,14.70
2023-05-01T00:29:10.756Z,15.23
2023-05-01T00:31:13.045Z,10.05
2023-05-01T00:33:15.644Z,11.73
2023-05-01T00:35:17.797Z,12.15
2023-05-01T00:37:19.718Z,11.73
2023-05-01T00:39:21.818Z,15.73
2023-05-01T00:41:25.446Z,16.75
2023-05-01T00:43:27.603Z,14.50
2023-05-01T00:45:29.681Z,13.48
2023-05-01T00:47:31.891Z,11.25
2023-05-01T00:49:34.300Z,15.05
2023-05-01T00:51:36.639Z,12.75
2023-05-01T00:53:41.224Z,13.13
2023-05-01T00:55:43.439Z,11.82
2023-05-01T00:57:47.384Z,13.93
2023-05-01T00:59:49.483Z,12.10
2023-05-01T01:01:52.791Z,11.52
2023-05-01T01:03:56.627Z,14.65
2023-05-01T01:06:07.695Z,14.68
2023-05-01T01:08:17.314Z,12.95
2023-05-01T01:10:27.456Z,14.35
2023-05-01T01:12:39.374Z,14.50
2023-05-01T01:15:02.432Z,11.50
2023-05-01T01:17:11.688Z,11.02
2023-05-01T01:19:47.877Z,15.20
2023-05-01T01:21:55.556Z,16.33
2023-05-01T01:24:26.130Z,10.73
2023-05-01T01:26:39.441Z,10.90
2023-05-01T01:29:04.720Z,12.25
2023-05-01T01:31:21.096Z,12.63
2023-05-01T01:33:58.951Z,11.48
2023-05-01T01:36:07.121Z,10.85
2023-05-01T01:38:17.772Z,11.52
2023-05-01T01:40:24.556Z,13.68
2023-05-01T01:42:34.923Z,12.95
2023-05-01T01:44:41.887Z,14.63
2023-05-01T01:46:44.247Z,12.88
2023-05-01T01:48:50.181Z,12.32
2023-05-01T01:50:54.058Z,11.57
2023-05-01T01:53:00.136Z,10.02
2023-05-01T01:55:06.333Z,11.43
2023-05-01T01:57:11.272Z,9.60
2023-05-01T01:59:15.152Z,12.32
2023-05-01T02:01:18.541Z,10.50
2023-05-01T02:03:21.764Z,13.40
2023-05-01T02:05:27.089Z,11.43
2023-05-01T02:07:30.623Z,11.20
2023-05-01T02:09:35.531Z,13.32
2023-05-01T02:13:42.390Z,12.77
2023-05-01T02:15:45.872Z,10.55
2023-05-01T02:17:50.716Z,13.10
2023-05-01T02:19:55.211Z,12.20
2023-05-01T02:22:01.203Z,12.15
2023-05-01T02:24:05.155Z,12.48
2023-05-01T02:26:13.667Z,11.87
2023-05-01T02:28:22.887Z,10.27
2023-05-01T02:30:25.644Z,12.88
2023-05-01T02:32:28.599Z,11.75
2023-05-01T02:34:30.792Z,11.38
2023-05-01T02:36:33.444Z,10.82
2023-05-01T02:38:37.111Z,12.52
2023-05-01T02:40:40.120Z,12.35
2023-05-01T02:42:43.782Z,10.18
2023-05-01T02:44:51.009Z,10.77
2023-05-01T02:46:55.349Z,13.07
2023-05-01T02:48:59.620Z,9.52
2023-05-01T02:51:03.536Z,8.98
2023-05-01T02:53:05.672Z,11.70
2023-05-01T02:55:09.805Z,9.52
2023-05-01T02:57:12.897Z,14.40
2023-05-01T02:59:15.517Z,9.40
2023-05-01T03:01:17.516Z,10.43
2023-05-01T03:03:19.606Z,11.20
2023-05-01T03:05:21.641Z,11.60
2023-05-01T03:07:24.649Z,10.23
2023-05-01T03:09:26.897Z,9.55
2023-05-01T03:11:30.435Z,10.15
2023-05-01T03:13:32.372Z,9.93
2023-05-01T03:15:34.410Z,11.05
2023-05-01T03:17:36.817Z,16.52
2023-05-01T03:19:39.011Z,11.50
2023-05-01T03:21:41.031Z,11.43
2023-05-01T03:23:43.031Z,11.30
2023-05-01T03:25:45.030Z,12.77
2023-05-01T03:27:49.498Z,10.07
2023-05-01T03:29:52.468Z,11.52
2023-05-01T03:31:54.540Z,11.00
2023-05-01T03:33:56.572Z,12.35
2023-05-01T03:36:03.981Z,13.93
2023-05-01T03:38:06.085Z,12.13
2023-05-01T03:40:09.150Z,11.68
2023-05-01T03:42:11.130Z,9.60
2023-05-01T03:44:14.707Z,14.35
2023-05-01T03:46:16.649Z,13.82
2023-05-01T03:48:19.029Z,11.45
2023-05-01T03:50:21.062Z,12.77
2023-05-01T03:52:23.368Z,14.52
2023-05-01T03:54:25.938Z,14.35
2023-05-01T03:56:28.833Z,13.63
2023-05-01T03:58:30.785Z,14.07
2023-05-01T04:00:34.217Z,14.77
2023-05-01T04:02:36.726Z,15.32
2023-05-01T04:04:39.026Z,14.95
2023-05-01T04:06:41.738Z,17.17
2023-05-01T04:08:43.698Z,16.20
2023-05-01T04:10:45.730Z,16.02
2023-05-01T04:12:47.779Z,15.07
2023-05-01T04:14:49.800Z,18.23
2023-05-01T04:16:53.248Z,14.57
2023-05-01T04:18:55.194Z,20.83
2023-05-01T04:20:57.326Z,19.08
2023-05-01T04:22:59.493Z,16.77
2023-05-01T04:25:01.782Z,20.30
2023-05-01T04:27:04.703Z,20.08
2023-05-01T04:29:06.828Z,21.77
2023-05-01T04:31:09.982Z,22.02
2023-05-01T04:33:13.387Z,20.13
2023-05-01T04:35:15.329Z,24.55
2023-05-01T04:37:18.616Z,27.98
2023-05-01T04:39:20.683Z,21.63
2023-05-01T04:41:22.778Z,23.25
2023-05-01T04:43:24.962Z,25.65
2023-05-01T04:45:27.062Z,30.65
2023-05-01T04:47:29.073Z,23.73
2023-05-01T04:49:32.834Z,27.50
2023-05-01T04:51:34.823Z,27.13
2023-05-01T04:53:37.013Z,25.52
2023-05-01T04:55:39.136Z,30.08
2023-05-01T04:57:41.306Z,27.05
2023-05-01T04:59:43.368Z,28.25
2023-05-01T05:01:45.444Z,26.55
2023-05-01T05:03:49.770Z,26.55
2023-05-01T05:05:53.719Z,24.48
2023-05-01T05:07:58.467Z,30.40
2023-05-01T05:10:00.637Z,26.83
2023-05-01T05:12:04.583Z,31.75
2023-05-01T05:14:06.807Z,28.52
2023-05-01T05:16:08.998Z,27.27
2023-05-01T05:18:11.018Z,26.88
2023-05-01T05:20:13.623Z,29.08
2023-05-01T05:22:17.102Z,26.35
2023-05-01T05:24:19.218Z,29.92
2023-05-01T05:26:21.973Z,31.60
2023-05-01T05:28:24.049Z,32.28
2023-05-01T05:30:26.147Z,27.63
2023-05-01T05:32:28.878Z,28.05
2023-05-01T05:34:31.194Z,31.40
2023-05-01T05:36:33.292Z,28.50
2023-05-01T05:38:36.864Z,30.45
2023-05-01T05:40:38.914Z,23.88
2023-05-01T05:42:41.136Z,28.10
2023-05-01T05:44:43.529Z,31.50
2023-05-01T05:46:45.797Z,33.35
2023-05-01T05:48:47.760Z,26.65
2023-05-01T05:50:52.439Z,35.45
2023-05-01T05:52:54.817Z,36.53
2023-05-01T05:54:58.147Z,32.00
2023-05-01T05:57:00.329Z,35.47
2023-05-01T05:59:04.485Z,33.70
2023-05-01T06:01:07.242Z,27.75
2023-05-01T06:03:09.324Z,26.90
2023-05-01T06:05:11.659Z,31.95
2023-05-01T06:07:13.702Z,31.00
2023-05-01T06:09:17.499Z,31.83
2023-05-01T06:11:21.883Z,27.70
2023-05-01T06:13:23.886Z,33.13
2023-05-01T06:15:25.818Z,33.20
2023-05-01T06:17:28.029Z,30.02
2023-05-01T06:19:30.520Z,28.05
2023-05-01T06:21:32.507Z,35.40
2023-05-01T06:23:34.687Z,35.55
2023-05-01T06:25:37.458Z,33.47
2023-05-01T06:27:40.802Z,32.65
2023-05-01T06:29:42.690Z,34.15
2023-05-01T06:31:47.366Z,35.80
2023-05-01T06:33:49.373Z,38.45
2023-05-01T06:35:51.463Z,36.67
2023-05-01T06:37:53.495Z,33.05
2023-05-01T06:39:56.027Z,36.17
2023-05-01T06:41:58.211Z,35.10
2023-05-01T06:44:01.860Z,31.20
2023-05-01T06:46:04.606Z,33.10
2023-05-01T06:48:06.885Z,38.22
2023-05-01T06:50:10.924Z,40.60
2023-05-01T06:52:12.901Z,39.15
2023-05-01T06:54:15.142Z,37.13
2023-05-01T06:56:17.177Z,36.88
2023-05-01T06:58:23.844Z,36.50
2023-05-01T07:00:28.055Z,35.90
2023-05-01T07:02:30.434Z,37.83
2023-05-01T07:04:32.530Z,41.97
2023-05-01T07:06:35.286Z,38.47
2023-05-01T07:08:37.256Z,37.97
2023-05-01T07:10:41.306Z,37.20
2023-05-01T07:14:46.361Z,38.00
2023-05-01T07:16:49.997Z,39.20
2023-05-01T07:18:52.317Z,34.88
2023-05-01T07:20:54.330Z,31.00
2023-05-01T07:22:56.299Z,32.10
2023-05-01T07:24:58.286Z,38.60
2023-05-01T07:27:00.722Z,30.98
2023-05-01T07:29:04.132Z,33.83
2023-05-01T07:31:06.160Z,33.95
2023-05-01T07:33:12.947Z,36.22
2023-05-01T07:35:15.172Z,32.42
2023-05-01T07:37:18.715Z,31.27
2023-05-01T07:39:20.731Z,28.92
2023-05-01T07:41:22.655Z,27.73
2023-05-01T07:43:24.676Z,24.75
2023-05-01T07:45:26.927Z,24.75
2023-05-01T07:47:29.129Z,25.98
2023-05-01T07:49:37.107Z,20.88
2023-05-01T07:51:39.094Z,24.15
2023-05-01T07:53:42.446Z,24.63
2023-05-01T07:55:44.561Z,22.33
2023-05-01T07:57:46.545Z,18.35
2023-05-01T07:59:48.646Z,20.90
2023-05-01T08:01:50.874Z,20.00
2023-05-01T08:03:53.120Z,20.27
2023-05-01T08:05:56.874Z,19.38
2023-05-01T08:07:59.207Z,18.85
2023-05-01T08:10:01.447Z,16.10
2023-05-01T08:12:04.188Z,17.00
2023-05-01T08:14:06.347Z,14.68
2023-05-01T08:16:09.276Z,17.00
2023-05-01T08:18:12.079Z,16.77
2023-05-01T08:20:14.105Z,15.48
2023-05-01T08:22:17.517Z,14.48
2023-05-01T08:24:19.551Z,16.95
2023-05-01T08:26:22.841Z,16.98
2023-05-01T08:28:25.112Z,15.45
2023-05-01T08:30:27.987Z,20.88
2023-05-01T08:32:30.226Z,19.73
2023-05-01T08:34:32.374Z,16.83
2023-05-01T08:36:34.749Z,19.60
2023-05-01T08:38:38.587Z,20.17
2023-05-01T08:40:43.834Z,21.08
2023-05-01T08:44:49.255Z,20.45
2023-05-01T08:47:00.094Z,21.05
2023-05-01T08:49:06.048Z,22.23
2023-05-01T08:51:11.396Z,22.60
2023-05-01T08:53:17.145Z,17.63
2023-05-01T08:55:21.652Z,20.45
2023-05-01T08:57:25.200Z,19.92
2023-05-01T08:59:30.109Z,20.35
2023-05-01T09:03:37.234Z,20.52
2023-05-01T09:05:39.497Z,20.17
2023-05-01T09:07:42.384Z,18.20
2023-05-01T09:09:44.570Z,17.42
2023-05-01T09:11:51.075Z,17.45
2023-05-01T09:13:54.169Z,14.00
2023-05-01T09:15:56.216Z,18.10
2023-05-01T09:18:03.262Z,16.60
2023-05-01T09:20:08.204Z,18.15
2023-05-01T09:22:10.529Z,15.25
2023-05-01T09:24:12.836Z,15.52
2023-05-01T09:26:15.040Z,14.27
2023-05-01T09:28:18.388Z,14.50
2023-05-01T09:30:38.775Z,12.25
2023-05-01T09:32:42.552Z,16.40
2023-05-01T09:34:45.226Z,16.77
2023-05-01T09:36:48.059Z,19.75
2023-05-01T09:38:50.055Z,15.68
2023-05-01T09:40:56.449Z,18.45
2023-05-01T09:42:58.877Z,18.67
2023-05-01T09:45:04.805Z,17.23
2023-05-01T09:47:08.706Z,16.35
2023-05-01T09:49:10.916Z,15.70
2023-05-01T09:51:23.640Z,15.10
2023-05-01T09:53:38.634Z,12.95
2023-05-01T09:55:40.838Z,9.95
2023-05-01T09:57:44.168Z,9.88
2023-05-01T10:00:08.207Z,10.43
2023-05-01T10:02:29.826Z,9.43
2023-05-01T10:04:32.612Z,10.20
2023-05-01T10:06:34.795Z,9.15
2023-05-01T10:08:47.507Z,8.57
2023-05-01T10:11:00.262Z,8.32
2023-05-01T10:13:14.914Z,6.40
2023-05-01T10:15:25.460Z,6.97
2023-05-01T10:17:28.721Z,7.13
2023-05-01T10:19:31.243Z,9.65
2023-05-01T10:21:34.051Z,10.45
2023-05-01T10:23:38.824Z,9.63
2023-05-01T10:25:42.292Z,9.23
2023-05-01T10:27:44.319Z,9.82
2023-05-01T10:29:49.070Z,12.70
2023-05-01T10:31:52.533Z,11.98
2023-05-01T10:33:55.660Z,10.88
2023-05-01T10:36:00.823Z,8.80
2023-05-01T10:38:06.494Z,12.68
2023-05-01T10:40:38.432Z,16.67
2023-05-01T10:43:13.848Z,12.02
2023-05-01T10:45:29.894Z,12.18
2023-05-01T10:47:48.834Z,11.98
2023-05-01T10:50:04.673Z,10.68
2023-05-01T10:52:06.718Z,9.52
2023-05-01T10:54:25.651Z,10.77
2023-05-01T10:56:43.697Z,9.68
2023-05-01T10:58:56.425Z,12.18
2023-05-01T11:01:29.187Z,11.07
2023-05-01T11:03:40.333Z,10.43
2023-05-01T11:06:07.548Z,9.13
2023-05-01T11:08:31.661Z,10.48
2023-05-01T11:10:33.867Z,8.70
2023-05-01T11:12:56.904Z,8.70
2023-05-01T11:15:04.080Z,10.35
2023-05-01T11:17:06.172Z,9.90
2023-05-01T11:19:12.000Z,10.32
2023-05-01T11:21:16.044Z,6.95
2023-05-01T11:23:22.691Z,8.87
2023-05-01T11:25:27.745Z,8.05
2023-05-01T11:27:30.326Z,9.13
2023-05-01T11:29:35.007Z,6.68
2023-05-01T11:31:37.814Z,7.45
2023-05-01T11:33:39.893Z,7.70
2023-05-01T11:35:44.095Z,8.00
2023-05-01T11:37:47.156Z,9.13
2023-05-01T11:39:50.734Z,7.18
2023-05-01T11:42:06.999Z,7.72
2023-05-01T11:44:11.652Z,7.45
2023-05-01T11:46:14.099Z,6.45
2023-05-01T11:48:19.452Z,7.60
2023-05-01T11:50:22.265Z,8.55
2023-05-01T11:52:25.960Z,6.07
2023-05-01T11:54:28.047Z,7.70
2023-05-01T11:56:30.757Z,6.28
2023-05-01T11:58:34.223Z,7.10
2023-05-01T12:00:38.237Z,6.30
2023-05-01T12:02:40.398Z,7.85
2023-05-01T12:04:42.605Z,6.70
2023-05-01T12:06:46.524Z,10.07
2023-05-01T12:08:53.107Z,18.88
2023-05-01T12:10:56.354Z,24.85
2023-05-01T12:12:58.576Z,23.13
2023-05-01T12:15:01.067Z,10.25
2023-05-01T12:17:04.164Z,2.95
2023-05-01T12:19:06.830Z,2.85
2023-05-01T12:21:17.347Z,2.50
2023-05-01T12:23:30.354Z,6.80
2023-05-01T12:25:34.927Z,2.33
2023-05-01T12:27:43.402Z,5.13
2023-05-01T12:29:47.459Z,1.80
2023-05-01T12:31:50.093Z,5.20
2023-05-01T12:33:59.512Z,3.47
2023-05-01T12:36:11.578Z,4.68
2023-05-01T12:38:15.210Z,2.53
2023-05-01T12:40:17.268Z,3.78
2023-05-01T12:42:25.924Z,5.05
2023-05-01T12:44:30.900Z,4.15
2023-05-01T12:48:40.068Z,4.88
2023-05-01T12:50:42.262Z,2.83
2023-05-01T12:52:44.561Z,3.53
2023-05-01T12:54:46.777Z,6.00
2023-05-01T12:56:49.347Z,4.60
2023-05-01T12:58:53.741Z,6.28
2023-05-01T13:00:56.143Z,6.13
2023-05-01T13:03:03.362Z,5.38
2023-05-01T13:05:07.016Z,5.07
2023-05-01T13:07:12.868Z,6.22
2023-05-01T13:09:16.935Z,5.50
2023-05-01T13:11:18.963Z,7.53
2023-05-01T13:13:28.068Z,5.35
2023-05-01T13:15:31.462Z,6.32
2023-05-01T13:17:33.676Z,7.40
2023-05-01T13:19:36.841Z,6.55
2023-05-01T13:21:48.079Z,7.68
2023-05-01T13:23:54.940Z,6.65
2023-05-01T13:25:57.500Z,6.13
2023-05-01T13:27:59.535Z,8.23
2023-05-01T13:30:02.362Z,6.20
2023-05-01T13:32:09.963Z,4.07
2023-05-01T13:34:17.301Z,11.52
2023-05-01T13:36:26.554Z,6.88
2023-05-01T13:38:30.591Z,6.93
2023-05-01T13:40:34.649Z,9.43
2023-05-01T13:42:38.422Z,4.67
2023-05-01T13:44:46.393Z,6.65
2023-05-01T13:46:49.358Z,3.88
2023-05-01T13:48:52.904Z,8.02
2023-05-01T13:50:54.895Z,7.43
2023-05-01T13:52:57.044Z,4.53
2023-05-01T13:54:59.688Z,5.47
2023-05-01T13:57:01.918Z,5.43
2023-05-01T13:59:04.676Z,9.23
2023-05-01T14:01:13.281Z,7.28
2023-05-01T14:03:16.194Z,7.18
2023-05-01T14:05:27.083Z,9.50
2023-05-01T14:07:29.293Z,7.05
2023-05-01T14:09:35.965Z,6.53
2023-05-01T14:11:44.632Z,9.50
2023-05-01T14:13:48.483Z,10.70
2023-05-01T14:15:50.613Z,8.55
2023-05-01T14:17:55.580Z,6.47
2023-05-01T14:19:57.715Z,14.77
2023-05-01T14:22:01.517Z,8.27
2023-05-01T14:24:04.428Z,6.82
2023-05-01T14:26:08.207Z,9.43
2023-05-01T14:28:12.166Z,10.43
2023-05-01T14:30:20.954Z,7.85
2023-05-01T14:32:23.111Z,12.90
2023-05-01T14:34:27.314Z,11.07
2023-05-01T14:36:32.648Z,8.98
2023-05-01T14:38:40.437Z,10.05
2023-05-01T14:40:43.613Z,13.35
2023-05-01T14:42:46.650Z,11.75
2023-05-01T14:44:48.847Z,7.90
2023-05-01T14:46:51.743Z,8.35
2023-05-01T14:48:54.095Z,6.22
2023-05-01T14:50:58.031Z,7.50
2023-05-01T14:53:01.267Z,8.50
2023-05-01T14:55:05.300Z,7.60
2023-05-01T14:57:11.256Z,6.37
2023-05-01T14:59:13.286Z,8.57
2023-05-01T15:01:15.751Z,7.18
2023-05-01T15:03:18.297Z,6.28
2023-05-01T15:05:20.657Z,8.43
2023-05-01T15:07:22.709Z,7.10
2023-05-01T15:09:24.734Z,13.90
2023-05-01T15:11:28.143Z,6.60
2023-05-01T15:13:34.369Z,8.70
2023-05-01T15:15:36.430Z,11.80
2023-05-01T15:17:39.984Z,12.32
2023-05-01T15:19:41.996Z,5.55
2023-05-01T15:21:43.993Z,7.90
2023-05-01T15:23:46.186Z,6.93
2023-05-01T15:25:50.555Z,6.15
2023-05-01T15:27:54.612Z,11.35
2023-05-01T15:29:58.092Z,6.60
2023-05-01T15:32:11.245Z,10.15
2023-05-01T15:34:14.225Z,7.65
2023-05-01T15:36:16.687Z,6.22
2023-05-01T15:38:20.464Z,5.70
2023-05-01T15:40:22.533Z,8.15
2023-05-01T15:42:24.665Z,6.43
2023-05-01T15:44:28.752Z,7.45
2023-05-01T15:46:31.372Z,8.32
2023-05-01T15:48:33.765Z,4.82
2023-05-01T15:50:35.757Z,5.18
2023-05-01T15:52:38.232Z,6.68
2023-05-01T15:54:40.727Z,6.38
2023-05-01T15:56:42.704Z,7.18
2023-05-01T15:58:44.617Z,8.73
2023-05-01T16:00:50.024Z,6.95
2023-05-01T16:02:52.406Z,7.75
2023-05-01T16:04:54.688Z,8.88
2023-05-01T16:06:56.903Z,7.13
2023-05-01T16:08:59.451Z,10.00
2023-05-01T16:11:04.225Z,7.68
2023-05-01T16:13:06.819Z,8.15
2023-05-01T16:15:10.376Z,5.32
2023-05-01T16:17:13.837Z,6.60
2023-05-01T16:19:17.932Z,6.65
2023-05-01T16:21:20.195Z,9.00
2023-05-01T16:23:24.819Z,4.95
2023-05-01T16:25:26.904Z,11.32
2023-05-01T16:27:29.105Z,6.75
2023-05-01T16:29:33.132Z,6.90
2023-05-01T16:31:38.712Z,5.23
2023-05-01T16:33:42.451Z,9.43
2023-05-01T16:35:44.416Z,6.38
2023-05-01T16:37:46.470Z,5.75
2023-05-01T16:39:48.570Z,6.55
2023-05-01T16:41:52.354Z,6.18
2023-05-01T16:43:58.679Z,5.82
2023-05-01T16:46:01.436Z,6.07
2023-05-01T16:48:03.858Z,10.82
2023-05-01T16:50:09.787Z,7.43
2023-05-01T16:52:14.184Z,10.77
2023-05-01T16:54:16.654Z,10.60
2023-05-01T16:56:18.981Z,9.27
2023-05-01T16:58:20.975Z,7.32
2023-05-01T17:00:23.290Z,8.45
2023-05-01T17:02:25.302Z,12.60
2023-05-01T17:04:27.686Z,10.02
2023-05-01T17:06:31.522Z,7.20
2023-05-01T17:08:33.543Z,10.20
2023-05-01T17:10:36.376Z,7.45
2023-05-01T17:12:39.446Z,10.63
2023-05-01T17:14:44.760Z,9.75
2023-05-01T17:16:49.955Z,7.60
2023-05-01T17:18:52.225Z,8.02
2023-05-01T17:20:54.286Z,8.20
2023-05-01T17:22:57.789Z,10.70
2023-05-01T17:25:02.310Z,16.23
2023-05-01T17:27:04.450Z,5.10
2023-05-01T17:29:06.665Z,11.38
2023-05-01T17:31:11.248Z,6.15
2023-05-01T17:33:14.247Z,8.23
2023-05-01T17:35:16.822Z,10.75
2023-05-01T17:37:18.903Z,7.90
2023-05-01T17:39:22.706Z,7.40
2023-05-01T17:41:25.114Z,10.98
2023-05-01T17:43:27.370Z,9.82
2023-05-01T17:45:29.402Z,6.25
2023-05-01T17:47:41.634Z,10.85
2023-05-01T17:49:43.791Z,10.30
2023-05-01T17:51:45.950Z,9.35
2023-05-01T17:53:48.329Z,9.00
2023-05-01T17:55:51.806Z,10.32
2023-05-01T17:57:53.969Z,8.25
2023-05-01T17:59:56.824Z,7.80
2023-05-01T18:01:59.254Z,10.23
2023-05-01T18:04:01.803Z,9.23
2023-05-01T18:06:04.405Z,12.32
2023-05-01T18:08:06.723Z,10.80
2023-05-01T18:10:10.707Z,12.57
2023-05-01T18:12:14.260Z,10.32
2023-05-01T18:14:16.589Z,11.32
2023-05-01T18:16:18.673Z,6.90
2023-05-01T18:18:20.884Z,9.20
2023-05-01T18:20:23.095Z,8.32
2023-05-01T18:22:25.753Z,9.23
2023-05-01T18:24:27.726Z,8.50
2023-05-01T18:26:30.892Z,9.20
2023-05-01T18:28:34.615Z,5.15
2023-05-01T18:30:37.402Z,8.85
2023-05-01T18:32:46.709Z,8.98
2023-05-01T18:34:52.779Z,9.10
2023-05-01T18:36:54.826Z,6.85
2023-05-01T18:38:57.503Z,9.18
2023-05-01T18:40:59.430Z,10.18
2023-05-01T18:43:01.629Z,7.85
2023-05-01T18:45:06.246Z,9.57
2023-05-01T18:47:11.772Z,7.97
2023-05-01T18:49:13.850Z,11.50
2023-05-01T18:51:16.781Z,7.22
2023-05-01T18:53:21.879Z,9.18
2023-05-01T18:55:23.931Z,6.28
2023-05-01T18:57:27.624Z,10.05
2023-05-01T18:59:31.004Z,7.63
2023-05-01T19:01:34.795Z,7.70
2023-05-01T19:03:37.020Z,9.27
2023-05-01T19:05:41.218Z,8.57
2023-05-01T19:07:43.366Z,8.73
2023-05-01T19:09:45.967Z,12.30
2023-05-01T19:11:48.495Z,9.20
2023-05-01T19:13:52.979Z,6.57
2023-05-01T19:15:55.074Z,9.57
2023-05-01T19:17:58.453Z,13.57
2023-05-01T19:20:01.089Z,9.32
2023-05-01T19:22:03.430Z,11.55
2023-05-01T19:24:05.903Z,10.80
2023-05-01T19:26:09.824Z,8.90
2023-05-01T19:28:11.762Z,8.02
2023-05-01T19:30:15.351Z,8.07
2023-05-01T19:32:17.518Z,10.13
2023-05-01T19:34:21.535Z,9.38
2023-05-01T19:36:23.520Z,10.43
2023-05-01T19:38:25.811Z,10.23
2023-05-01T19:40:27.873Z,9.00
2023-05-01T19:42:30.664Z,10.27
2023-05-01T19:44:32.591Z,8.18
2023-05-01T19:46:34.490Z,8.75
2023-05-01T19:48:36.577Z,9.35
2023-05-01T19:50:42.752Z,12.65
2023-05-01T19:52:44.670Z,9.13
2023-05-01T19:54:47.598Z,10.18
2023-05-01T19:56:51.816Z,8.50
2023-05-01T19:58:55.020Z,10.32
2023-05-01T20:00:59.138Z,8.30
2023-05-01T20:03:01.215Z,8.35
2023-05-01T20:05:04.570Z,10.40
2023-05-01T20:07:08.096Z,7.75
2023-05-01T20:09:10.308Z,8.02
2023-05-01T20:11:12.261Z,9.20
2023-05-01T20:13:14.430Z,11.55
2023-05-01T20:15:16.771Z,8.23
2023-05-01T20:17:18.960Z,9.30
2023-05-01T20:19:20.880Z,9.35
2023-05-01T20:21:22.800Z,9.98
2023-05-01T20:23:26.435Z,10.75
2023-05-01T20:25:28.528Z,13.02
2023-05-01T20:27:33.924Z,10.05
2023-05-01T20:29:36.091Z,9.98
2023-05-01T20:31:38.322Z,9.90
2023-05-01T20:33:40.581Z,10.35
2023-05-01T20:35:42.592Z,9.73
2023-05-01T20:37:44.525Z,12.57
2023-05-01T20:39:48.601Z,12.40
2023-05-01T20:41:51.106Z,13.00
2023-05-01T20:43:53.160Z,17.60
2023-05-01T20:45:55.161Z,12.70
2023-05-01T20:47:57.492Z,12.30
2023-05-01T20:50:00.306Z,12.77
2023-05-01T20:52:02.892Z,8.73
2023-05-01T20:54:05.037Z,11.57
2023-05-01T20:56:08.445Z,13.68
2023-05-01T20:58:10.614Z,15.52
2023-05-01T21:00:13.890Z,13.85
2023-05-01T21:02:16.826Z,12.23
2023-05-01T21:04:19.094Z,14.13
2023-05-01T21:06:21.453Z,14.57
2023-05-01T21:08:25.231Z,13.70
2023-05-01T21:10:27.281Z,8.95
2023-05-01T21:12:30.855Z,13.05
2023-05-01T21:14:32.929Z,9.75
2023-05-01T21:16:35.067Z,10.18
2023-05-01T21:18:37.910Z,9.93
2023-05-01T21:20:41.198Z,9.25
2023-05-01T21:22:45.558Z,14.75
2023-05-01T21:24:53.177Z,8.80
2023-05-01T21:26:55.335Z,11.00
2023-05-01T21:28:59.600Z,14.07
2023-05-01T21:31:01.584Z,9.98
2023-05-01T21:33:07.089Z,11.88
2023-05-01T21:35:11.431Z,13.75
2023-05-01T21:37:18.641Z,10.27
2023-05-01T21:39:24.335Z,9.05
2023-05-01T21:41:26.833Z,13.82
2023-05-01T21:43:31.217Z,13.07
2023-05-01T21:45:40.053Z,14.50
2023-05-01T21:47:43.727Z,11.70
2023-05-01T21:49:46.177Z,12.88
2023-05-01T21:51:48.740Z,15.73
2023-05-01T21:53:50.699Z,11.77
2023-05-01T21:55:52.646Z,11.65
2023-05-01T21:57:54.886Z,12.88
2023-05-01T21:59:58.676Z,14.30
2023-05-01T22:02:04.745Z,11.55
2023-05-01T22:04:07.566Z,13.70
2023-05-01T22:06:09.712Z,11.45
2023-05-01T22:08:12.256Z,13.20
2023-05-01T22:10:16.921Z,13.25
2023-05-01T22:12:18.929Z,15.02
2023-05-01T22:14:21.581Z,13.60
2023-05-01T22:16:23.859Z,13.50
2023-05-01T22:18:27.384Z,17.02
2023-05-01T22:20:29.745Z,13.27
2023-05-01T22:22:32.017Z,10.95
2023-05-01T22:24:36.184Z,14.75
2023-05-01T22:26:41.339Z,11.55
2023-05-01T22:28:43.494Z,14.15
2023-05-01T22:30:46.815Z,15.23
2023-05-01T22:32:48.881Z,15.70
2023-05-01T22:34:52.362Z,16.88
2023-05-01T22:36:54.358Z,12.65
2023-05-01T22:38:56.650Z,14.88
2023-05-01T22:40:58.627Z,15.07
2023-05-01T22:43:00.682Z,13.32
2023-05-01T22:45:02.913Z,12.25
2023-05-01T22:47:04.843Z,13.52
2023-05-01T22:49:09.231Z,17.50
2023-05-01T22:51:15.523Z,13.07
2023-05-01T22:53:17.595Z,14.85
2023-05-01T22:55:19.630Z,15.68
2023-05-01T22:57:21.741Z,10.05
2023-05-01T22:59:24.210Z,9.93
2023-05-01T23:01:27.207Z,13.82
2023-05-01T23:03:31.376Z,10.82
2023-05-01T23:05:33.372Z,11.23
2023-05-01T23:07:36.983Z,12.07
2023-05-01T23:09:39.365Z,14.05
2023-05-01T23:11:41.740Z,10.63
2023-05-01T23:13:47.723Z,12.00
2023-05-01T23:15:50.388Z,16.70
2023-05-01T23:17:53.021Z,12.25
2023-05-01T23:19:58.355Z,11.82
2023-05-01T23:22:09.621Z,17.95
2023-05-01T23:24:15.106Z,19.80
2023-05-01T23:26:24.522Z,17.90
2023-05-01T23:28:28.065Z,13.77
2023-05-01T23:30:30.001Z,20.42
2023-05-01T23:32:33.505Z,18.58
2023-05-01T23:34:35.813Z,16.75
2023-05-01T23:36:37.937Z,13.00
2023-05-01T23:38:40.319Z,17.65
2023-05-01T23:40:44.792Z,13.88
2023-05-01T23:42:47.335Z,20.38
2023-05-01T23:44:49.443Z,17.50
2023-05-01T23:46:51.526Z,18.33
2023-05-01T23:48:53.669Z,13.85
2023-05-01T23:50:56.133Z,13.60
2023-05-01T23:52:58.445Z,15.48
2023-05-01T23:55:00.589Z,15.48
2023-05-01T23:57:04.272Z,20.23
2023-05-01T23:59:06.356Z,17.60
